createdAt,value
2023-05-01T00:01:45.949Z,7.28
2023-05-01T00:04:13.126Z,8.23
2023-05-01T00:06:39.905Z,7.65
2023-05-01T00:09:07.119Z,7.82
2023-05-01T00:11:36.132Z,8.82
2023-05-01T00:14:03.316Z,7.03
2023-05-01T00:16:29.941Z,6.63
2023-05-01T00:18:56.494Z,5.97
2023-05-01T00:21:23.029Z,6.57
2023-05-01T00:23:49.757Z,5.88
2023-05-01T00:26:16.320Z,6.47
2023-05-01T00:28:42.883Z,7.45
2023-05-01T00:31:09.410Z,7.90
2023-05-01T00:33:35.988Z,6.53
2023-05-01T00:36:02.560Z,7.22
2023-05-01T00:38:29.146Z,7.85
2023-05-01T00:40:56.149Z,8.02
2023-05-01T00:43:22.725Z,5.68
2023-05-01T00:45:49.389Z,6.15
2023-05-01T00:48:16.310Z,6.60
2023-05-01T00:50:44.758Z,6.38
2023-05-01T00:53:12.301Z,5.75
2023-05-01T00:55:42.174Z,5.82
2023-05-01T00:58:10.052Z,6.28
2023-05-01T01:00:37.058Z,6.45
2023-05-01T01:03:04.850Z,5.97
2023-05-01T01:05:35.690Z,6.35
2023-05-01T01:08:02.159Z,5.57
2023-05-01T01:10:51.172Z,6.38
2023-05-01T01:13:52.000Z,7.32
2023-05-01T01:16:39.347Z,5.80
2023-05-01T01:19:34.766Z,5.65
2023-05-01T01:24:39.957Z,5.13
2023-05-01T01:27:21.415Z,5.60
2023-05-01T01:30:09.277Z,5.72
2023-05-01T01:33:02.215Z,5.35
2023-05-01T01:35:31.581Z,5.32
2023-05-01T01:38:06.668Z,4.18
2023-05-01T01:40:40.085Z,3.92
2023-05-01T01:43:08.394Z,5.35
2023-05-01T01:45:41.006Z,4.97
2023-05-01T01:48:17.801Z,5.57
2023-05-01T01:50:46.813Z,5.20
2023-05-01T01:53:17.712Z,4.82
2023-05-01T01:55:46.723Z,5.22
2023-05-01T01:58:15.134Z,3.58
2023-05-01T02:00:45.050Z,4.63
2023-05-01T02:03:15.030Z,4.38
2023-05-01T02:05:45.783Z,5.00
2023-05-01T02:08:14.324Z,4.45
2023-05-01T02:10:43.746Z,4.68
2023-05-01T02:13:12.199Z,5.30
2023-05-01T02:15:41.135Z,4.60
2023-05-01T02:18:08.908Z,3.38
2023-05-01T02:20:37.510Z,4.72
2023-05-01T02:23:05.665Z,4.50
2023-05-01T02:25:35.446Z,3.75
2023-05-01T02:28:12.607Z,3.72
2023-05-01T02:30:39.847Z,3.97
2023-05-01T02:33:08.820Z,4.55
2023-05-01T02:35:47.383Z,4.68
2023-05-01T02:38:15.146Z,3.85
2023-05-01T02:40:45.525Z,4.70
2023-05-01T02:43:16.247Z,5.38
2023-05-01T02:45:44.861Z,4.85
2023-05-01T02:48:14.889Z,5.35
2023-05-01T02:50:44.078Z,3.22
2023-05-01T02:53:12.032Z,4.00
2023-05-01T02:55:39.295Z,4.75
2023-05-01T02:58:05.865Z,3.55
2023-05-01T03:00:32.531Z,3.47
2023-05-01T03:02:59.124Z,3.70
2023-05-01T03:05:25.729Z,3.70
2023-05-01T03:07:52.758Z,3.65
2023-05-01T03:10:19.436Z,3.15
2023-05-01T03:12:45.947Z,3.97
2023-05-01T03:15:13.228Z,4.20
2023-05-01T03:17:39.828Z,3.83
2023-05-01T03:20:07.155Z,3.65
2023-05-01T03:22:33.750Z,3.40
2023-05-01T03:25:00.764Z,4.00
2023-05-01T03:27:27.534Z,3.97
2023-05-01T03:29:54.278Z,2.65
2023-05-01T03:32:21.162Z,6.10
2023-05-01T03:34:47.831Z,4.90
2023-05-01T03:37:15.157Z,3.50
2023-05-01T03:39:41.781Z,5.20
2023-05-01T03:42:08.272Z,2.55
2023-05-01T03:44:34.815Z,4.50
2023-05-01T03:47:01.767Z,2.75
2023-05-01T03:49:28.808Z,3.20
2023-05-01T03:51:55.398Z,3.20
2023-05-01T03:54:21.990Z,2.83
2023-05-01T03:56:48.528Z,3.13
2023-05-01T03:59:15.077Z,3.13
2023-05-01T04:01:41.715Z,2.85
2023-05-01T04:04:08.576Z,2.53
2023-05-01T04:06:36.216Z,2.60
2023-05-01T04:09:03.046Z,3.15
2023-05-01T04:11:29.567Z,3.30
2023-05-01T04:13:56.135Z,3.40
2023-05-01T04:16:22.776Z,2.83
2023-05-01T04:18:49.313Z,3.42
2023-05-01T04:21:17.673Z,2.85
2023-05-01T04:23:44.682Z,3.35
2023-05-01T04:26:11.224Z,2.40
2023-05-01T04:28:37.970Z,4.32
2023-05-01T04:31:04.592Z,3.65
2023-05-01T04:33:31.202Z,1.95
2023-05-01T04:35:57.932Z,3.67
2023-05-01T04:38:24.839Z,2.92
2023-05-01T04:40:52.420Z,3.28
2023-05-01T04:43:18.902Z,3.45
2023-05-01T04:45:45.535Z,2.30
2023-05-01T04:48:12.210Z,3.95
2023-05-01T04:50:38.759Z,3.28
2023-05-01T04:53:05.304Z,3.22
2023-05-01T04:55:31.879Z,3.58
2023-05-01T04:57:58.465Z,2.55
2023-05-01T05:00:24.999Z,3.05
2023-05-01T05:02:51.658Z,3.13
2023-05-01T05:05:18.298Z,2.90
2023-05-01T05:07:44.804Z,3.42
2023-05-01T05:10:11.365Z,2.72
2023-05-01T05:12:37.931Z,2.80
2023-05-01T05:15:04.704Z,2.72
2023-05-01T05:17:31.264Z,2.20
2023-05-01T05:19:58.127Z,3.67
2023-05-01T05:22:26.109Z,2.85
2023-05-01T05:24:55.957Z,2.67
2023-05-01T05:27:22.476Z,4.13
2023-05-01T05:29:50.326Z,3.70
2023-05-01T05:32:17.065Z,4.25
2023-05-01T05:34:43.676Z,4.25
2023-05-01T05:37:10.183Z,4.30
2023-05-01T05:39:36.730Z,2.40
2023-05-01T05:42:03.744Z,3.45
2023-05-01T05:44:31.702Z,4.85
2023-05-01T05:46:58.241Z,2.83
2023-05-01T05:49:24.765Z,2.38
2023-05-01T05:51:51.695Z,4.80
2023-05-01T05:54:18.244Z,4.28
2023-05-01T05:56:44.775Z,3.05
2023-05-01T05:59:11.307Z,3.30
2023-05-01T06:01:37.834Z,4.70
2023-05-01T06:04:04.525Z,4.30
2023-05-01T06:06:32.138Z,4.05
2023-05-01T06:08:58.692Z,3.53
2023-05-01T06:11:25.214Z,2.92
2023-05-01T06:13:51.793Z,3.90
2023-05-01T06:16:18.429Z,3.15
2023-05-01T06:18:45.855Z,3.47
2023-05-01T06:21:12.934Z,5.30
2023-05-01T06:23:39.918Z,5.47
2023-05-01T06:26:07.799Z,3.72
2023-05-01T06:28:34.360Z,3.97
2023-05-01T06:31:01.084Z,3.22
2023-05-01T06:33:27.667Z,3.85
2023-05-01T06:35:54.724Z,3.47
2023-05-01T06:38:21.383Z,2.50
2023-05-01T06:40:48.994Z,3.47
2023-05-01T06:43:15.904Z,3.30
2023-05-01T06:45:42.776Z,2.80
2023-05-01T06:48:09.356Z,2.75
2023-05-01T06:50:36.051Z,3.38
2023-05-01T06:53:03.065Z,3.05
2023-05-01T06:55:35.214Z,2.72
2023-05-01T06:58:06.922Z,2.80
2023-05-01T07:00:39.160Z,3.45
2023-05-01T07:03:05.830Z,2.67
2023-05-01T07:05:32.392Z,4.07
2023-05-01T07:08:01.650Z,3.72
2023-05-01T07:10:29.210Z,3.47
2023-05-01T07:12:55.728Z,3.70
2023-05-01T07:15:22.371Z,3.33
2023-05-01T07:17:50.376Z,5.30
2023-05-01T07:20:17.075Z,3.35
2023-05-01T07:22:43.920Z,2.55
2023-05-01T07:25:10.476Z,3.17
2023-05-01T07:27:37.013Z,1.90
2023-05-01T07:30:05.166Z,2.97
2023-05-01T07:32:33.148Z,2.97
2023-05-01T07:35:00.002Z,3.47
2023-05-01T07:37:27.063Z,2.83
2023-05-01T07:39:53.667Z,2.20
2023-05-01T07:42:20.269Z,2.90
2023-05-01T07:44:46.849Z,2.75
2023-05-01T07:47:13.540Z,2.58
2023-05-01T07:49:40.138Z,2.63
2023-05-01T07:52:09.556Z,3.63
2023-05-01T07:54:36.121Z,3.05
2023-05-01T07:57:02.682Z,3.10
2023-05-01T07:59:29.185Z,3.35
2023-05-01T08:01:56.803Z,3.17
2023-05-01T08:04:23.550Z,2.83
2023-05-01T08:06:51.198Z,3.25
2023-05-01T08:09:18.002Z,3.55
2023-05-01T08:11:44.561Z,4.22
2023-05-01T08:14:11.350Z,3.63
2023-05-01T08:16:38.020Z,2.83
2023-05-01T08:19:04.574Z,3.10
2023-05-01T08:21:31.367Z,3.65
2023-05-01T08:23:57.893Z,4.97
2023-05-01T08:26:24.501Z,4.63
2023-05-01T08:28:51.225Z,3.88
2023-05-01T08:31:19.366Z,2.60
2023-05-01T08:33:46.013Z,4.50
2023-05-01T08:36:12.661Z,3.30
2023-05-01T08:38:39.214Z,3.13
2023-05-01T08:41:06.307Z,3.75
2023-05-01T08:43:33.526Z,3.08
2023-05-01T08:46:04.964Z,2.55
2023-05-01T08:48:35.337Z,5.05
2023-05-01T08:51:04.098Z,3.42
2023-05-01T08:53:33.311Z,2.65
2023-05-01T08:56:01.405Z,2.70
2023-05-01T08:58:29.148Z,4.35
2023-05-01T09:00:58.262Z,2.50
2023-05-01T09:03:26.553Z,6.40
2023-05-01T09:05:53.842Z,4.03
2023-05-01T09:08:20.742Z,4.85
2023-05-01T09:10:49.390Z,3.05
2023-05-01T09:13:16.106Z,4.43
2023-05-01T09:15:42.701Z,2.20
2023-05-01T09:18:09.451Z,2.47
2023-05-01T09:20:37.829Z,4.68
2023-05-01T09:23:04.831Z,5.05
2023-05-01T09:25:31.475Z,2.13
2023-05-01T09:27:58.101Z,2.30
2023-05-01T09:30:38.415Z,4.78
2023-05-01T09:33:06.734Z,4.38
2023-05-01T09:35:47.902Z,3.08
2023-05-01T09:38:18.165Z,3.70
2023-05-01T09:40:45.407Z,3.13
2023-05-01T09:43:12.009Z,7.93
2023-05-01T09:45:40.209Z,13.40
2023-05-01T09:48:14.125Z,5.38
2023-05-01T09:50:43.455Z,7.07
2023-05-01T09:53:11.233Z,11.07
2023-05-01T09:55:37.806Z,17.02
2023-05-01T09:58:04.349Z,17.52
2023-05-01T10:00:30.912Z,26.77
2023-05-01T10:02:57.636Z,27.92
2023-05-01T10:05:24.706Z,17.33
2023-05-01T10:08:03.708Z,23.85
2023-05-01T10:10:30.697Z,24.45
2023-05-01T10:13:13.506Z,22.13
2023-05-01T10:15:40.052Z,25.00
2023-05-01T10:18:09.809Z,22.30
2023-05-01T10:20:36.454Z,23.60
2023-05-01T10:23:06.091Z,21.90
2023-05-01T10:25:33.637Z,13.90
2023-05-01T10:28:03.790Z,25.70
2023-05-01T10:30:31.235Z,13.68
2023-05-01T10:32:58.991Z,15.75
2023-05-01T10:35:29.737Z,15.68
2023-05-01T10:38:09.314Z,15.20
2023-05-01T10:40:38.913Z,14.93
2023-05-01T10:43:30.498Z,15.25
2023-05-01T10:46:26.945Z,14.20
2023-05-01T10:48:54.394Z,13.82
2023-05-01T10:51:25.673Z,9.77
2023-05-01T10:54:12.367Z,11.27
2023-05-01T10:56:38.806Z,13.65
2023-05-01T10:59:05.615Z,12.88
2023-05-01T11:01:42.455Z,11.07
2023-05-01T11:04:24.649Z,10.77
2023-05-01T11:07:08.018Z,11.63
2023-05-01T11:09:39.735Z,11.85
2023-05-01T11:12:07.387Z,11.52
2023-05-01T11:14:57.602Z,17.13
2023-05-01T11:17:39.635Z,11.68
2023-05-01T11:20:11.044Z,7.25
2023-05-01T11:22:42.800Z,7.10
2023-05-01T11:25:22.966Z,8.40
2023-05-01T11:27:51.011Z,11.07
2023-05-01T11:30:18.232Z,7.63
2023-05-01T11:32:46.621Z,9.27
2023-05-01T11:35:21.062Z,9.57
2023-05-01T11:37:48.754Z,8.38
2023-05-01T11:40:29.393Z,4.25
2023-05-01T11:43:06.030Z,8.25
2023-05-01T11:45:33.958Z,5.18
2023-05-01T11:48:04.523Z,6.30
2023-05-01T11:50:36.721Z,5.80
2023-05-01T11:53:17.222Z,6.85
2023-05-01T11:55:44.557Z,10.15
2023-05-01T11:58:12.109Z,6.28
2023-05-01T12:00:41.776Z,7.95
2023-05-01T12:03:15.341Z,8.00
2023-05-01T12:05:44.404Z,6.60
2023-05-01T12:08:20.695Z,5.18
2023-05-01T12:10:50.327Z,5.57
2023-05-01T12:13:17.404Z,4.30
2023-05-01T12:15:46.330Z,5.70
2023-05-01T12:18:15.039Z,6.43
2023-05-01T12:20:43.875Z,5.93
2023-05-01T12:23:13.308Z,6.40
2023-05-01T12:25:41.018Z,3.10
2023-05-01T12:28:15.559Z,6.80
2023-05-01T12:30:43.260Z,7.97
2023-05-01T12:33:11.156Z,5.95
2023-05-01T12:35:38.690Z,5.90
2023-05-01T12:38:21.794Z,11.90
2023-05-01T12:40:56.730Z,7.13
2023-05-01T12:43:37.293Z,5.43
2023-05-01T12:46:05.744Z,9.38
2023-05-01T12:48:34.278Z,14.93
2023-05-01T12:51:01.288Z,8.32
2023-05-01T12:53:29.202Z,13.20
2023-05-01T12:55:57.745Z,7.93
2023-05-01T12:58:35.067Z,14.35
2023-05-01T13:01:01.655Z,9.50
2023-05-01T13:03:30.151Z,11.73
2023-05-01T13:06:01.652Z,11.77
2023-05-01T13:08:41.597Z,8.73
2023-05-01T13:11:16.497Z,9.35
2023-05-01T13:13:44.800Z,5.55
2023-05-01T13:16:12.749Z,8.02
2023-05-01T13:18:47.443Z,12.30
2023-05-01T13:21:20.618Z,8.68
2023-05-01T13:23:54.466Z,7.15
2023-05-01T13:26:28.812Z,6.00
2023-05-01T13:28:57.141Z,8.10
2023-05-01T13:31:23.995Z,10.77
2023-05-01T13:33:53.671Z,4.45
2023-05-01T13:36:26.337Z,5.65
2023-05-01T13:38:56.040Z,4.80
2023-05-01T13:41:25.796Z,6.60
2023-05-01T13:43:54.429Z,6.28
2023-05-01T13:46:22.741Z,10.82
2023-05-01T13:48:50.076Z,4.65
2023-05-01T13:51:24.967Z,4.65
2023-05-01T13:53:53.667Z,3.75
2023-05-01T13:56:21.914Z,3.92
2023-05-01T13:58:50.209Z,6.40
2023-05-01T14:01:20.119Z,5.93
2023-05-01T14:03:47.763Z,6.05
2023-05-01T14:06:19.175Z,6.95
2023-05-01T14:08:47.929Z,5.50
2023-05-01T14:11:15.246Z,4.60
2023-05-01T14:13:46.652Z,6.03
2023-05-01T14:16:31.870Z,6.55
2023-05-01T14:18:58.705Z,3.60
2023-05-01T14:21:29.893Z,3.53
2023-05-01T14:23:57.172Z,8.68
2023-05-01T14:26:24.707Z,3.22
2023-05-01T14:28:51.541Z,5.65
2023-05-01T14:31:27.565Z,4.78
2023-05-01T14:34:06.972Z,4.90
2023-05-01T14:36:33.970Z,5.22
2023-05-01T14:39:02.258Z,3.83
2023-05-01T14:41:29.902Z,4.90
2023-05-01T14:43:56.956Z,4.00
2023-05-01T14:46:32.060Z,5.65
2023-05-01T14:49:00.095Z,5.50
2023-05-01T14:51:27.439Z,5.82
2023-05-01T14:53:54.476Z,5.57
2023-05-01T14:56:21.371Z,7.13
2023-05-01T14:58:47.938Z,9.32
2023-05-01T15:01:15.144Z,10.75
2023-05-01T15:03:43.797Z,8.02
2023-05-01T15:06:10.721Z,9.55
2023-05-01T15:08:38.342Z,9.32
2023-05-01T15:11:05.083Z,6.45
2023-05-01T15:13:31.862Z,9.60
2023-05-01T15:15:59.048Z,8.57
2023-05-01T15:18:26.239Z,9.77
2023-05-01T15:20:52.885Z,8.30
2023-05-01T15:23:19.463Z,10.30
2023-05-01T15:25:47.849Z,7.22
2023-05-01T15:28:14.554Z,7.15
2023-05-01T15:30:46.273Z,7.68
2023-05-01T15:33:18.767Z,7.72
2023-05-01T15:35:46.755Z,13.98
2023-05-01T15:38:13.381Z,8.93
2023-05-01T15:40:42.524Z,7.60
2023-05-01T15:43:09.322Z,7.88
2023-05-01T15:45:36.132Z,9.68
2023-05-01T15:48:03.210Z,7.88
2023-05-01T15:50:29.834Z,9.20
2023-05-01T15:52:57.032Z,8.18
2023-05-01T15:55:23.572Z,7.20
2023-05-01T15:57:50.095Z,7.40
2023-05-01T16:00:17.375Z,8.35
2023-05-01T16:02:44.574Z,8.25
2023-05-01T16:05:13.662Z,7.65
2023-05-01T16:07:40.234Z,8.05
2023-05-01T16:10:08.388Z,12.10
2023-05-01T16:12:34.962Z,8.77
2023-05-01T16:15:03.899Z,21.17
2023-05-01T16:17:43.232Z,10.63
2023-05-01T16:20:11.750Z,12.25
2023-05-01T16:22:40.094Z,8.45
2023-05-01T16:25:08.512Z,7.22
2023-05-01T16:27:35.711Z,9.90
2023-05-01T16:30:05.563Z,10.35
2023-05-01T16:32:32.245Z,11.85
2023-05-01T16:34:59.051Z,7.38
2023-05-01T16:37:26.941Z,8.45
2023-05-01T16:39:53.444Z,9.02
2023-05-01T16:42:19.963Z,8.02
2023-05-01T16:44:46.688Z,7.72
2023-05-01T16:47:13.317Z,14.57
2023-05-01T16:49:41.983Z,8.57
2023-05-01T16:52:13.356Z,10.10
2023-05-01T16:54:39.928Z,9.85
2023-05-01T16:57:06.709Z,8.88
2023-05-01T16:59:33.312Z,8.65
2023-05-01T17:01:59.928Z,7.78
2023-05-01T17:04:26.677Z,10.30
2023-05-01T17:06:54.827Z,11.25
2023-05-01T17:09:21.676Z,15.25
2023-05-01T17:11:48.389Z,12.57
2023-05-01T17:14:14.940Z,9.60
2023-05-01T17:16:41.491Z,13.10
2023-05-01T17:19:09.782Z,11.43
2023-05-01T17:21:36.378Z,10.13
2023-05-01T17:24:03.195Z,11.45
2023-05-01T17:26:29.741Z,16.05
2023-05-01T17:28:56.300Z,12.98
2023-05-01T17:31:23.007Z,10.35
2023-05-01T17:33:49.866Z,11.95
2023-05-01T17:36:16.571Z,11.38
2023-05-01T17:38:43.132Z,8.52
2023-05-01T17:41:09.689Z,10.18
2023-05-01T17:43:36.254Z,9.52
2023-05-01T17:46:04.838Z,11.20
2023-05-01T17:48:31.559Z,10.55
2023-05-01T17:50:58.223Z,10.32
2023-05-01T17:53:25.172Z,10.88
2023-05-01T17:55:52.069Z,9.65
2023-05-01T17:58:18.629Z,10.75
2023-05-01T18:00:45.154Z,11.70
2023-05-01T18:03:12.341Z,12.32
2023-05-01T18:05:39.195Z,12.40
2023-05-01T18:08:05.925Z,10.60
2023-05-01T18:10:32.596Z,11.02
2023-05-01T18:12:59.164Z,10.82
2023-05-01T18:15:25.891Z,12.15
2023-05-01T18:17:52.527Z,13.77
2023-05-01T18:20:19.592Z,12.82
2023-05-01T18:22:46.166Z,12.90
2023-05-01T18:25:13.492Z,11.75
2023-05-01T18:27:41.730Z,12.70
2023-05-01T18:30:09.162Z,17.70
2023-05-01T18:32:46.978Z,14.65
2023-05-01T18:35:15.178Z,14.88
2023-05-01T18:37:42.513Z,14.02
2023-05-01T18:40:09.899Z,18.98
2023-05-01T18:42:36.457Z,16.95
2023-05-01T18:45:04.041Z,15.90
2023-05-01T18:47:32.409Z,16.10
2023-05-01T18:49:59.552Z,17.90
2023-05-01T18:52:26.545Z,20.40
2023-05-01T18:54:53.139Z,24.20
2023-05-01T18:57:19.657Z,21.00
2023-05-01T18:59:46.203Z,25.00
2023-05-01T19:02:12.838Z,26.60
2023-05-01T19:04:56.104Z,29.00
2023-05-01T19:07:24.901Z,31.42
2023-05-01T19:09:51.428Z,26.33
2023-05-01T19:12:18.077Z,29.85
2023-05-01T19:14:44.645Z,34.13
2023-05-01T19:17:11.290Z,32.50
2023-05-01T19:19:37.795Z,32.67
2023-05-01T19:22:04.427Z,35.88
2023-05-01T19:24:31.020Z,31.05
2023-05-01T19:26:57.533Z,29.63
2023-05-01T19:29:24.097Z,29.75
2023-05-01T19:31:50.789Z,33.08
2023-05-01T19:34:17.406Z,33.42
2023-05-01T19:36:43.933Z,32.25
2023-05-01T19:39:10.482Z,31.20
2023-05-01T19:41:37.057Z,31.05
2023-05-01T19:44:03.740Z,31.35
2023-05-01T19:46:30.452Z,31.42
2023-05-01T19:48:57.053Z,30.95
2023-05-01T19:51:23.633Z,29.25
2023-05-01T19:53:50.188Z,35.17
2023-05-01T19:56:16.682Z,29.90
2023-05-01T19:58:43.224Z,30.05
2023-05-01T20:01:11.847Z,29.90
2023-05-01T20:03:38.813Z,31.38
2023-05-01T20:06:06.417Z,28.70
2023-05-01T20:08:33.800Z,31.50
2023-05-01T20:11:01.459Z,31.52
2023-05-01T20:13:28.005Z,28.67
2023-05-01T20:15:54.548Z,31.55
2023-05-01T20:18:22.140Z,30.23
2023-05-01T20:20:48.756Z,31.83
2023-05-01T20:23:17.288Z,31.90
2023-05-01T20:25:45.305Z,33.53
2023-05-01T20:28:14.776Z,32.60
2023-05-01T20:30:43.665Z,34.70
2023-05-01T20:33:11.115Z,33.30
2023-05-01T20:35:38.147Z,32.97
2023-05-01T20:38:05.515Z,32.78
2023-05-01T20:40:33.425Z,31.88
2023-05-01T20:43:00.670Z,38.85
2023-05-01T20:45:29.236Z,32.75
2023-05-01T20:47:56.126Z,36.38
2023-05-01T20:50:23.062Z,36.30
2023-05-01T20:52:51.352Z,38.00
2023-05-01T20:55:18.257Z,36.58
2023-05-01T20:57:44.909Z,35.20
2023-05-01T21:00:11.721Z,33.00
2023-05-01T21:02:39.848Z,35.50
2023-05-01T21:05:08.897Z,32.03
2023-05-01T21:07:37.316Z,35.17
2023-05-01T21:10:09.943Z,32.58
2023-05-01T21:12:37.362Z,32.50
2023-05-01T21:15:04.869Z,33.00
2023-05-01T21:17:33.404Z,34.60
2023-05-01T21:20:00.439Z,33.83
2023-05-01T21:22:27.732Z,31.25
2023-05-01T21:24:56.214Z,30.10
2023-05-01T21:27:24.369Z,33.25
2023-05-01T21:30:01.701Z,30.65
2023-05-01T21:32:33.927Z,31.17
2023-05-01T21:35:01.163Z,32.75
2023-05-01T21:37:29.194Z,30.55
2023-05-01T21:39:58.941Z,34.00
2023-05-01T21:42:30.911Z,29.23
2023-05-01T21:45:05.756Z,34.17
2023-05-01T21:47:37.648Z,28.38
2023-05-01T21:50:06.590Z,30.05
2023-05-01T21:52:34.373Z,32.08
2023-05-01T21:55:04.980Z,31.30
2023-05-01T21:57:31.946Z,30.27
2023-05-01T22:00:01.617Z,32.70
2023-05-01T22:02:40.605Z,29.98
2023-05-01T22:05:08.109Z,28.35
2023-05-01T22:07:37.673Z,29.80
2023-05-01T22:10:04.464Z,28.58
2023-05-01T22:12:31.023Z,28.98
2023-05-01T22:14:57.633Z,30.60
2023-05-01T22:17:24.350Z,27.40
2023-05-01T22:19:51.753Z,27.67
2023-05-01T22:22:18.977Z,25.67
2023-05-01T22:24:45.912Z,27.80
2023-05-01T22:27:13.454Z,28.13
2023-05-01T22:29:39.958Z,29.25
2023-05-01T22:32:06.593Z,27.25
2023-05-01T22:34:33.328Z,30.38
2023-05-01T22:36:59.866Z,32.45
2023-05-01T22:39:26.447Z,27.08
2023-05-01T22:41:53.074Z,26.50
2023-05-01T22:44:21.631Z,25.58
2023-05-01T22:46:49.050Z,28.58
2023-05-01T22:49:15.621Z,28.85
2023-05-01T22:51:42.175Z,26.40
2023-05-01T22:54:08.832Z,25.90
2023-05-01T22:56:35.435Z,28.95
2023-05-01T22:59:02.261Z,25.38
2023-05-01T23:01:28.905Z,25.48
2023-05-01T23:03:55.880Z,24.05
2023-05-01T23:06:22.688Z,29.17
2023-05-01T23:08:53.745Z,24.80
2023-05-01T23:11:21.353Z,24.02
2023-05-01T23:13:50.001Z,23.60
2023-05-01T23:16:17.210Z,22.40
2023-05-01T23:18:45.282Z,23.83
2023-05-01T23:21:16.668Z,23.80
2023-05-01T23:23:44.054Z,26.65
2023-05-01T23:26:17.108Z,22.08
2023-05-01T23:28:43.672Z,22.42
2023-05-01T23:31:18.558Z,21.58
2023-05-01T23:33:45.144Z,24.30
2023-05-01T23:36:13.019Z,23.38
2023-05-01T23:38:40.385Z,22.58
2023-05-01T23:41:07.767Z,21.42
2023-05-01T23:43:35.015Z,22.40
2023-05-01T23:46:03.536Z,23.95
2023-05-01T23:48:37.039Z,21.08
2023-05-01T23:51:04.067Z,22.50
2023-05-01T23:53:30.641Z,20.88
2023-05-01T23:55:57.887Z,20.05
2023-05-01T23:58:24.486Z,21.05
